Time;durP1;ratioP1;P1;durP2;ratioP2;P2;SDS_P1;SDS_P2;PMS_P1;PMS_P2;Temp;Humidity;BMP_temperature;BMP_pressure;BME280_temperature;BME280_humidity;BME280_pressure;Samples;Min_cycle;Max_cycle;Signal;HPM_P1;HPM_P2
2022/10/29 00:01:54;;;;;;;;;;;;;;;9.95;82.68;99596.59;5047952;28;1738;-77
2022/10/29 00:04:21;;;;;;;;;;;;;;;9.96;82.76;99608.97;5042447;28;1792;-77
2022/10/29 00:06:47;;;;;;;;;;;;;;;9.95;82.72;99602.78;5040370;28;1918;-77
2022/10/29 00:09:13;;;;;;;;;;;;;;;9.97;82.94;99613.28;5043486;28;1841;-77
2022/10/29 00:11:40;;;;;;;;;;;;;;;9.96;82.75;99614.34;5022132;28;1593;-77
2022/10/29 00:14:06;;;;;;;;;;;;;;;9.95;82.66;99612.72;5043442;28;1865;-77
2022/10/29 00:16:32;;;;;;;;;;;;;;;9.95;82.68;99608.16;5026580;28;1840;-77
2022/10/29 00:18:58;;;;;;;;;;;;;;;9.96;83.16;99614.34;5042767;28;1651;-77
2022/10/29 00:21:25;;;;;;;;;;;;;;;9.96;82.89;99614.34;5042994;28;1876;-77
2022/10/29 00:23:51;;;;;;;;;;;;;;;9.96;82.73;99612.47;5043586;28;1988;-77
2022/10/29 00:26:17;;;;;;;;;;;;;;;9.96;82.99;99588.25;5005414;28;1868;-77
2022/10/29 00:28:43;;;;;;;;;;;;;;;9.98;82.82;99609.56;5006568;28;1953;-77
2022/10/29 00:31:10;;;;;;;;;;;;;;;9.99;82.73;99619.25;5028811;28;1610;-77
2022/10/29 00:33:36;;;;;;;;;;;;;;;9.98;82.71;99621.13;5023949;28;1679;-77
2022/10/29 00:36:02;;;;;;;;;;;;;;;9.98;82.97;99610.38;5022318;28;1870;-77
2022/10/29 00:38:29;;;;;;;;;;;;;;;9.98;82.77;99614.94;5025594;28;2159;-77
2022/10/29 00:40:55;;;;;;;;;;;;;;;9.99;82.73;99619.25;5022364;28;1584;-77
2022/10/29 00:43:21;;;;;;;;;;;;;;;9.98;82.87;99613.06;5023782;28;1670;-77
2022/10/29 00:45:47;;;;;;;;;;;;;;;9.99;82.87;99628.13;5026853;28;1558;-77
2022/10/29 00:48:14;;;;;;;;;;;;;;;9.99;82.91;99628.13;5002472;28;1985;-77
2022/10/29 00:50:40;;;;;;;;;;;;;;;9.98;82.61;99626.50;5006042;28;1539;-77
2022/10/29 00:53:06;;;;;;;;;;;;;;;9.99;82.72;99621.94;5022005;28;1604;-77
2022/10/29 00:55:33;;;;;;;;;;;;;;;9.99;82.64;99621.94;5021192;28;1571;-77
2022/10/29 00:57:59;;;;;;;;;;;;;;;10.00;82.90;99631.66;5024121;28;1540;-77
2022/10/29 01:00:26;;;;;;;;;;;;;;;9.99;82.79;99624.63;5023897;28;1704;-77
2022/10/29 01:02:52;;;;;;;;;;;;;;;9.99;82.82;99624.63;5021009;28;1919;-77
2022/10/29 01:05:18;;;;;;;;;;;;;;;9.99;82.85;99627.31;5005952;28;1528;-77
2022/10/29 01:07:44;;;;;;;;;;;;;;;10.00;82.83;99623.59;5004076;28;1953;-77
2022/10/29 01:10:11;;;;;;;;;;;;;;;10.00;82.79;99629.78;5025074;28;1683;-77
2022/10/29 01:12:37;;;;;;;;;;;;;;;10.00;82.67;99624.41;5022302;28;1560;-77
2022/10/29 01:15:03;;;;;;;;;;;;;;;10.00;82.63;99632.47;5024807;28;1822;-77
2022/10/29 01:17:30;;;;;;;;;;;;;;;10.00;82.63;99639.75;5021797;28;1572;-77
2022/10/29 01:19:56;;;;;;;;;;;;;;;10.00;82.59;99640.56;5004794;28;1571;-77
2022/10/29 01:22:22;;;;;;;;;;;;;;;10.01;82.76;99635.97;5003565;28;1815;-77
2022/10/29 01:24:48;;;;;;;;;;;;;;;10.01;82.69;99644.88;5023369;28;1695;-77
2022/10/29 01:27:15;;;;;;;;;;;;;;;10.02;82.59;99643.00;5030005;28;1906;-77
2022/10/29 01:29:41;;;;;;;;;;;;;;;10.01;82.84;99649.44;5023162;28;1519;-77
2022/10/29 01:32:08;;;;;;;;;;;;;;;10.01;82.70;99644.88;5023372;28;1799;-77
2022/10/29 01:34:34;;;;;;;;;;;;;;;10.02;82.69;99651.88;5027588;28;1630;-77
2022/10/29 01:37:00;;;;;;;;;;;;;;;10.04;82.70;99642.75;5025029;28;1541;-77
2022/10/29 01:39:26;;;;;;;;;;;;;;;10.02;82.64;99637.59;5022607;28;1896;-77
2022/10/29 01:41:53;;;;;;;;;;;;;;;10.03;82.64;99647.34;5025609;28;1881;-77
2022/10/29 01:44:19;;;;;;;;;;;;;;;10.02;82.65;99649.19;5022405;28;1584;-77
2022/10/29 01:46:45;;;;;;;;;;;;;;;10.03;82.71;99636.56;5009665;28;1567;-77
2022/10/29 01:49:11;;;;;;;;;;;;;;;10.04;82.88;99654.34;5021632;28;1912;-77
2022/10/29 01:51:38;;;;;;;;;;;;;;;10.04;82.70;99658.91;5020532;28;1825;-77
2022/10/29 01:54:04;;;;;;;;;;;;;;;10.03;82.61;99658.09;5006635;28;1671;-77
2022/10/29 01:56:30;;;;;;;;;;;;;;;10.04;82.76;99664.28;5023193;28;3045;-77
2022/10/29 01:58:57;;;;;;;;;;;;;;;10.04;82.78;99665.09;5020460;28;5509;-77
2022/10/29 02:01:23;;;;;;;;;;;;;;;10.02;82.57;99668.00;5024558;28;1802;-77
2022/10/29 02:03:49;;;;;;;;;;;;;;;10.03;82.62;99663.47;5007833;28;3974;-77
2022/10/29 02:06:15;;;;;;;;;;;;;;;10.03;82.51;99660.78;5005999;28;1545;-77
2022/10/29 02:08:42;;;;;;;;;;;;;;;10.03;82.47;99674.22;5025758;28;1954;-77
2022/10/29 02:11:08;;;;;;;;;;;;;;;10.04;82.70;99681.25;5024875;28;1695;-77
2022/10/29 02:13:34;;;;;;;;;;;;;;;10.05;82.79;99688.25;5021733;28;1797;-77
2022/10/29 02:16:01;;;;;;;;;;;;;;;10.04;82.67;99685.81;5004466;28;3998;-77
2022/10/29 02:18:27;;;;;;;;;;;;;;;10.04;82.66;99688.50;5026211;28;1576;-77
2022/10/29 02:20:53;;;;;;;;;;;;;;;10.03;82.65;99674.22;5020706;28;1821;-77
2022/10/29 02:23:19;;;;;;;;;;;;;;;10.03;82.52;99682.31;5007302;28;1704;-77
2022/10/29 02:25:46;;;;;;;;;;;;;;;10.03;82.60;99671.53;5031276;28;1746;-77
2022/10/29 02:28:12;;;;;;;;;;;;;;;10.04;82.54;99672.34;5026685;28;2914;-77
2022/10/29 02:30:38;;;;;;;;;;;;;;;10.02;82.68;99668.00;5008002;28;1825;-77
2022/10/29 02:33:05;;;;;;;;;;;;;;;10.02;82.35;99678.78;5011047;28;1972;-77
2022/10/29 02:35:31;;;;;;;;;;;;;;;10.03;82.52;99674.22;5027796;28;1509;-77
2022/10/29 02:37:57;;;;;;;;;;;;;;;10.04;82.58;99683.13;5029259;28;1529;-77
2022/10/29 02:40:23;;;;;;;;;;;;;;;10.04;82.44;99693.88;5027541;28;1529;-77
2022/10/29 02:42:50;;;;;;;;;;;;;;;10.04;82.60;99677.75;5028137;28;1869;-77
2022/10/29 02:45:16;;;;;;;;;;;;;;;10.03;82.80;99679.63;5025708;28;1599;-77
2022/10/29 02:47:42;;;;;;;;;;;;;;;10.03;82.56;99685.00;5006978;28;1895;-77
2022/10/29 02:50:09;;;;;;;;;;;;;;;10.04;82.60;99675.03;5029434;28;1520;-77
2022/10/29 02:52:35;;;;;;;;;;;;;;;10.01;82.51;99674.47;5007535;28;1793;-77
2022/10/29 02:55:01;;;;;;;;;;;;;;;10.03;82.39;99671.53;5010296;28;1553;-77
2022/10/29 02:57:27;;;;;;;;;;;;;;;10.04;82.57;99672.34;5028897;28;1664;-77
2022/10/29 02:59:54;;;;;;;;;;;;;;;10.04;82.48;99681.25;5027702;28;1579;-77
2022/10/29 03:02:20;;;;;;;;;;;;;;;10.04;82.44;99683.13;5027847;28;1816;-77
2022/10/29 03:04:46;;;;;;;;;;;;;;;10.03;82.59;99679.63;5026923;28;1849;-77
2022/10/29 03:07:12;;;;;;;;;;;;;;;10.03;82.04;99682.31;5024929;28;1719;-77
2022/10/29 03:09:39;;;;;;;;;;;;;;;9.71;82.53;99638.84;5027172;28;1973;-77
2022/10/29 03:12:05;;;;;;;;;;;;;;;10.02;82.52;99694.09;5024757;28;1651;-77
2022/10/29 03:14:31;;;;;;;;;;;;;;;10.02;82.49;99684.16;5005357;28;1767;-77
2022/10/29 03:16:58;;;;;;;;;;;;;;;10.02;82.61;99686.84;5027211;28;1517;-77
2022/10/29 03:19:24;;;;;;;;;;;;;;;10.02;82.38;99694.09;5027277;28;1595;-77
2022/10/29 03:21:50;;;;;;;;;;;;;;;10.03;82.36;99701.13;5010321;28;1612;-77
2022/10/29 03:24:16;;;;;;;;;;;;;;;10.02;82.29;99692.22;5007281;28;2003;-76
2022/10/29 03:26:43;;;;;;;;;;;;;;;10.04;82.23;99696.56;5009012;28;1842;-76
2022/10/29 03:29:09;;;;;;;;;;;;;;;10.02;82.39;99700.28;5025030;28;2049;-77
2022/10/29 03:31:35;;;;;;;;;;;;;;;10.02;82.48;99708.38;5010797;28;1802;-77
2022/10/29 03:34:02;;;;;;;;;;;;;;;10.02;82.58;99721.81;5025390;28;1901;-77
2022/10/29 03:36:28;;;;;;;;;;;;;;;10.02;82.49;99721.81;5027901;28;1786;-77
2022/10/29 03:38:54;;;;;;;;;;;;;;;10.02;82.31;99716.44;5033597;28;1635;-77
2022/10/29 03:41:20;;;;;;;;;;;;;;;10.02;82.49;99726.38;5022865;28;1953;-77
2022/10/29 03:43:47;;;;;;;;;;;;;;;10.01;82.44;99733.63;5044079;28;1881;-77
2022/10/29 03:46:13;;;;;;;;;;;;;;;10.02;82.67;99734.44;5043131;28;2063;-77
2022/10/29 03:48:39;;;;;;;;;;;;;;;10.01;82.43;99732.81;5044388;28;1971;-77
2022/10/29 03:51:06;;;;;;;;;;;;;;;10.02;82.30;99731.75;5025996;28;1955;-77
2022/10/29 03:53:32;;;;;;;;;;;;;;;10.01;82.52;99735.50;5043501;28;1908;-77
2022/10/29 03:55:58;;;;;;;;;;;;;;;10.01;82.34;99749.78;5046139;28;1821;-77
2022/10/29 03:58:24;;;;;;;;;;;;;;;10.01;82.51;99751.66;5042970;28;1740;-77
2022/10/29 04:00:51;;;;;;;;;;;;;;;10.01;82.52;99743.59;5043739;28;2013;-77
2022/10/29 04:03:17;;;;;;;;;;;;;;;10.00;82.36;99750.84;5044064;28;1983;-77
2022/10/29 04:05:43;;;;;;;;;;;;;;;10.01;82.41;99751.66;5047851;28;1642;-76
2022/10/29 04:08:09;;;;;;;;;;;;;;;10.00;82.32;99750.84;5042728;28;1967;-77
2022/10/29 04:10:36;;;;;;;;;;;;;;;10.00;82.29;99737.41;5042983;28;2043;-77
2022/10/29 04:13:03;;;;;;;;;;;;;;;10.00;82.25;99741.97;5044133;28;1821;-77
2022/10/29 04:15:29;;;;;;;;;;;;;;;10.00;82.30;99745.47;5042994;28;1691;-77
2022/10/29 04:17:56;;;;;;;;;;;;;;;10.00;82.12;99752.72;5026891;28;1755;-77
2022/10/29 04:20:22;;;;;;;;;;;;;;;10.00;82.53;99752.72;5023374;28;1964;-77
2022/10/29 04:22:48;;;;;;;;;;;;;;;9.99;82.54;99764.50;5045680;28;1765;-77
2022/10/29 04:25:15;;;;;;;;;;;;;;;9.99;82.45;99772.59;5043993;28;1722;-77
2022/10/29 04:27:41;;;;;;;;;;;;;;;10.00;82.43;99771.56;5019886;28;4817;-77
2022/10/29 04:30:07;;;;;;;;;;;;;;;9.98;82.46;99763.69;5029016;28;4135;-77
2022/10/29 04:32:33;;;;;;;;;;;;;;;9.98;82.48;99761.00;5024864;28;2246;-76
2022/10/29 04:35:00;;;;;;;;;;;;;;;9.98;82.42;99761.00;5023757;28;3905;-77
2022/10/29 04:37:26;;;;;;;;;;;;;;;9.98;82.42;99765.59;5026012;28;1575;-77
2022/10/29 04:39:52;;;;;;;;;;;;;;;9.97;82.49;99762.06;5023029;28;1769;-77
2022/10/29 04:42:18;;;;;;;;;;;;;;;9.97;82.42;99763.91;5028875;28;1544;-77
2022/10/29 04:44:45;;;;;;;;;;;;;;;9.97;82.42;99766.63;5024010;28;1968;-77
2022/10/29 04:47:11;;;;;;;;;;;;;;;9.97;82.36;99763.91;5005909;28;3944;-77
2022/10/29 04:49:37;;;;;;;;;;;;;;;9.97;82.43;99761.22;5026669;28;1981;-77
2022/10/29 04:52:04;;;;;;;;;;;;;;;9.96;82.29;99754.22;5009744;28;1539;-77
2022/10/29 04:54:30;;;;;;;;;;;;;;;9.96;82.29;99762.31;5005104;28;1688;-77
2022/10/29 04:56:56;;;;;;;;;;;;;;;9.96;82.38;99767.69;5024863;28;1532;-77
2022/10/29 04:59:22;;;;;;;;;;;;;;;9.95;82.37;99763.34;5023985;28;2555;-77
2022/10/29 05:01:49;;;;;;;;;;;;;;;9.94;82.31;99773.31;5023065;28;1528;-77
2022/10/29 05:04:15;;;;;;;;;;;;;;;9.97;82.22;99774.69;5028312;28;1988;-77
2022/10/29 05:06:41;;;;;;;;;;;;;;;9.95;82.03;99780.31;5025757;28;1672;-77
2022/10/29 05:09:07;;;;;;;;;;;;;;;9.95;82.17;99766.06;5025840;28;1914;-77
2022/10/29 05:11:34;;;;;;;;;;;;;;;9.95;82.15;99769.56;5023841;28;1775;-77
2022/10/29 05:14:00;;;;;;;;;;;;;;;9.95;82.28;99769.56;5023262;28;1551;-77
2022/10/29 05:16:26;;;;;;;;;;;;;;;9.96;82.16;99773.06;5025505;28;1766;-77
2022/10/29 05:18:53;;;;;;;;;;;;;;;9.94;82.22;99759.84;5025534;28;1694;-77
2022/10/29 05:21:19;;;;;;;;;;;;;;;9.95;82.15;99755.28;5023972;28;1788;-77
2022/10/29 05:23:45;;;;;;;;;;;;;;;9.94;82.39;99759.84;5009270;28;1522;-77
2022/10/29 05:26:12;;;;;;;;;;;;;;;9.93;82.11;99749.31;5009608;28;1644;-77
2022/10/29 05:28:38;;;;;;;;;;;;;;;9.94;82.13;99759.00;5030569;28;1983;-77
2022/10/29 05:31:04;;;;;;;;;;;;;;;9.93;82.10;99766.28;5014052;28;1665;-76
2022/10/29 05:33:30;;;;;;;;;;;;;;;9.94;82.20;99770.63;5030476;28;1889;-77
2022/10/29 05:35:57;;;;;;;;;;;;;;;9.94;82.07;99756.31;5039456;28;1867;-77
2022/10/29 05:38:23;;;;;;;;;;;;;;;9.92;82.30;99747.69;5043757;28;1709;-77
2022/10/29 05:40:49;;;;;;;;;;;;;;;9.91;82.24;99749.56;5045528;28;1958;-77
2022/10/29 05:43:15;;;;;;;;;;;;;;;9.93;82.00;99749.31;5040641;28;1717;-77
2022/10/29 05:45:42;;;;;;;;;;;;;;;9.92;82.20;99743.13;5020827;28;1925;-77
2022/10/29 05:48:08;;;;;;;;;;;;;;;9.93;82.10;99757.38;5041676;28;2013;-77
2022/10/29 05:50:34;;;;;;;;;;;;;;;9.92;82.24;99756.56;5040620;28;1829;-77
2022/10/29 05:53:01;;;;;;;;;;;;;;;9.91;82.30;99762.19;5021728;28;2012;-77
2022/10/29 05:55:27;;;;;;;;;;;;;;;9.92;82.02;99761.13;5044314;28;2051;-77
2022/10/29 05:57:53;;;;;;;;;;;;;;;9.91;82.23;99764.88;5041156;28;1968;-77
2022/10/29 06:00:19;;;;;;;;;;;;;;;9.91;82.27;99772.94;5024835;28;1933;-77
2022/10/29 06:02:46;;;;;;;;;;;;;;;9.91;82.22;99778.31;5046195;28;2058;-77
2022/10/29 06:05:12;;;;;;;;;;;;;;;9.91;82.25;99786.38;5046784;28;1956;-76
2022/10/29 06:07:38;;;;;;;;;;;;;;;9.91;82.16;99783.69;5025955;28;1858;-77
2022/10/29 06:10:05;;;;;;;;;;;;;;;9.90;82.14;99774.00;5029235;28;1960;-77
2022/10/29 06:12:31;;;;;;;;;;;;;;;9.90;82.21;99782.06;5044551;28;1894;-77
2022/10/29 06:14:58;;;;;;;;;;;;;;;9.89;82.32;99792.00;5026869;28;1776;-77
2022/10/29 06:17:24;;;;;;;;;;;;;;;9.89;82.08;99799.28;5027935;28;1623;-77
2022/10/29 06:19:50;;;;;;;;;;;;;;;9.89;82.42;99802.78;5044457;28;1964;-77
2022/10/29 06:22:16;;;;;;;;;;;;;;;9.88;82.11;99803.00;5046130;28;1690;-77
2022/10/29 06:24:43;;;;;;;;;;;;;;;9.88;82.14;99809.22;5045856;28;2296;-77
2022/10/29 06:27:09;;;;;;;;;;;;;;;9.88;82.24;99814.59;5047464;28;1797;-77
2022/10/29 06:29:35;;;;;;;;;;;;;;;9.87;82.08;99807.56;5045640;28;1977;-77
2022/10/29 06:32:02;;;;;;;;;;;;;;;9.88;82.21;99813.75;5044721;28;1992;-77
2022/10/29 06:34:28;;;;;;;;;;;;;;;9.87;82.05;99828.25;5045883;28;2074;-77
2022/10/29 06:36:54;;;;;;;;;;;;;;;9.87;81.98;99825.56;5028353;28;1822;-77
2022/10/29 06:39:20;;;;;;;;;;;;;;;9.87;82.17;99817.50;5042533;28;2043;-76
2022/10/29 06:41:47;;;;;;;;;;;;;;;9.86;82.09;99813.19;5006256;28;1739;-77
2022/10/29 06:44:13;;;;;;;;;;;;;;;9.85;82.06;99820.41;5006860;28;1913;-77
2022/10/29 06:46:40;;;;;;;;;;;;;;;9.84;82.05;99821.47;5027007;28;1536;-77
2022/10/29 06:49:06;;;;;;;;;;;;;;;9.84;82.14;99820.66;5025171;28;1918;-77
2022/10/29 06:51:33;;;;;;;;;;;;;;;9.84;82.31;99818.78;5025377;28;1719;-77
2022/10/29 06:53:59;;;;;;;;;;;;;;;9.86;82.54;99829.31;5010481;28;1894;-77
2022/10/29 06:56:25;;;;;;;;;;;;;;;9.83;82.39;99817.16;5015999;28;1645;-77
2022/10/29 06:58:52;;;;;;;;;;;;;;;9.83;82.17;99822.53;5020324;28;4785;-77
2022/10/29 07:01:19;;;;;;;;;;;;;;;9.83;82.50;99817.16;5046251;28;4882;-77
2022/10/29 07:03:45;;;;;;;;;;;;;;;9.83;82.37;99824.41;5044176;28;3997;-77
2022/10/29 07:06:11;;;;;;;;;;;;;;;9.82;82.30;99820.88;5033952;28;1539;-77
2022/10/29 07:08:37;;;;;;;;;;;;;;;9.83;82.67;99816.34;5024548;28;2005;-77
2022/10/29 07:11:04;;;;;;;;;;;;;;;9.83;82.81;99819.84;5008560;28;1818;-77
2022/10/29 07:13:30;;;;;;;;;;;;;;;9.83;82.74;99832.47;5022573;28;1535;-77
2022/10/29 07:15:56;;;;;;;;;;;;;;;9.83;82.91;99833.28;5043455;28;3256;-77
2022/10/29 07:18:23;;;;;;;;;;;;;;;9.82;83.01;99820.06;5045910;28;1798;-77
2022/10/29 07:20:49;;;;;;;;;;;;;;;9.83;82.78;99827.09;5044650;28;2039;-76
2022/10/29 07:23:16;;;;;;;;;;;;;;;9.82;83.02;99825.44;5060432;28;1983;-77
2022/10/29 07:25:42;;;;;;;;;;;;;;;9.82;83.05;99822.75;5055735;28;1175;-76
2022/10/29 07:28:09;;;;;;;;;;;;;;;9.82;82.93;99833.50;5027349;28;3021;-77
2022/10/29 07:30:35;;;;;;;;;;;;;;;9.82;82.96;99820.06;5064445;28;2402;-76
2022/10/29 07:33:01;;;;;;;;;;;;;;;9.81;82.79;99829.19;5056750;28;1243;-77
2022/10/29 07:35:27;;;;;;;;;;;;;;;9.80;82.57;99828.38;5053499;28;2275;-77
2022/10/29 07:37:54;;;;;;;;;;;;;;;9.80;82.58;99833.75;5041591;28;3328;-77
2022/10/29 07:40:20;;;;;;;;;;;;;;;9.80;82.57;99832.94;5043616;28;1607;-77
2022/10/29 07:42:47;;;;;;;;;;;;;;;9.82;82.76;99833.50;5038648;28;2063;-76
2022/10/29 07:45:13;;;;;;;;;;;;;;;9.80;82.64;99836.44;5009221;28;1860;-76
2022/10/29 07:47:41;;;;;;;;;;;;;;;9.80;82.73;99843.69;5026481;28;2401;-77
2022/10/29 07:50:08;;;;;;;;;;;;;;;9.80;83.01;99839.13;5044682;28;2190;-77
2022/10/29 07:52:34;;;;;;;;;;;;;;;9.79;82.82;99848.22;5015422;28;1921;-77
2022/10/29 07:55:01;;;;;;;;;;;;;;;9.79;82.92;99842.84;5010761;28;1571;-76
2022/10/29 07:57:27;;;;;;;;;;;;;;;9.80;82.82;99839.13;5032996;28;1882;-77
2022/10/29 07:59:54;;;;;;;;;;;;;;;9.80;82.88;99849.88;5034410;28;1545;-77
2022/10/29 08:02:20;;;;;;;;;;;;;;;9.79;82.85;99845.53;5017101;28;1711;-77
2022/10/29 08:04:46;;;;;;;;;;;;;;;9.79;82.94;99872.44;5040512;28;1746;-77
2022/10/29 08:07:14;;;;;;;;;;;;;;;9.79;82.97;99875.13;5024502;28;1933;-77
2022/10/29 08:09:42;;;;;;;;;;;;;;;9.78;82.76;99871.63;5031719;28;1906;-77
2022/10/29 08:12:09;;;;;;;;;;;;;;;9.79;82.72;99859.00;5044374;28;1585;-76
2022/10/29 08:14:35;;;;;;;;;;;;;;;9.78;82.70;99868.94;5046138;28;1856;-77
2022/10/29 08:17:01;;;;;;;;;;;;;;;9.79;82.84;99875.13;5016321;28;1747;-77
2022/10/29 08:19:28;;;;;;;;;;;;;;;9.79;82.88;99877.81;5033543;28;1658;-76
2022/10/29 08:21:55;;;;;;;;;;;;;;;9.78;82.75;99884.25;5026466;28;2057;-76
2022/10/29 08:24:21;;;;;;;;;;;;;;;9.77;82.61;99893.38;5007767;28;1640;-77
2022/10/29 08:26:47;;;;;;;;;;;;;;;9.78;82.85;99895.00;5026892;28;1765;-76
2022/10/29 08:29:13;;;;;;;;;;;;;;;9.77;82.80;99914.91;5011397;28;1967;-77
2022/10/29 08:31:40;;;;;;;;;;;;;;;9.77;82.70;99907.63;5010830;28;1796;-77
2022/10/29 08:34:06;;;;;;;;;;;;;;;9.77;82.70;99922.97;5026378;28;4785;-77
2022/10/29 08:36:32;;;;;;;;;;;;;;;9.76;82.78;99922.16;5010182;28;4546;-77
2022/10/29 08:38:59;;;;;;;;;;;;;;;9.78;82.80;99927.28;5025479;28;2901;-77
2022/10/29 08:41:25;;;;;;;;;;;;;;;9.79;82.91;99934.28;5035839;28;1658;-77
2022/10/29 08:43:51;;;;;;;;;;;;;;;9.75;82.80;99933.94;5028987;28;1927;-76
2022/10/29 08:46:18;;;;;;;;;;;;;;;9.76;82.81;99940.97;5040053;28;1552;-77
2022/10/29 08:48:45;;;;;;;;;;;;;;;9.74;82.92;99926.94;5040996;28;1759;-76
2022/10/29 08:51:12;;;;;;;;;;;;;;;9.74;82.41;99923.41;5024485;28;4000;-77
2022/10/29 08:53:38;;;;;;;;;;;;;;;9.75;82.92;99922.38;5040480;28;1900;-77
2022/10/29 08:56:04;;;;;;;;;;;;;;;9.74;82.78;99915.34;5021973;28;1842;-77
2022/10/29 08:58:31;;;;;;;;;;;;;;;9.74;82.69;99918.03;5043106;28;1914;-76
2022/10/29 09:00:57;;;;;;;;;;;;;;;9.73;82.90;99932.53;5044004;28;1759;-76
2022/10/29 09:03:25;;;;;;;;;;;;;;;9.74;82.84;99931.50;5045601;28;2914;-77
2022/10/29 09:05:51;;;;;;;;;;;;;;;9.75;82.75;99935.81;5043059;28;1865;-76
2022/10/29 09:08:17;;;;;;;;;;;;;;;9.73;82.96;99941.41;5050122;28;1843;-77
2022/10/29 09:10:43;;;;;;;;;;;;;;;9.74;82.96;99961.06;5032910;28;2274;-77
2022/10/29 09:13:10;;;;;;;;;;;;;;;9.73;82.63;99954.84;5051844;28;1875;-77
2022/10/29 09:15:36;;;;;;;;;;;;;;;9.72;82.76;99953.22;5035157;28;1839;-77
2022/10/29 09:18:02;;;;;;;;;;;;;;;9.73;82.87;99959.41;5052258;28;1045;-77
2022/10/29 09:20:28;;;;;;;;;;;;;;;9.73;82.87;99952.16;5046620;28;1417;-77
2022/10/29 09:22:55;;;;;;;;;;;;;;;9.72;82.49;99942.47;5055984;28;2331;-76
2022/10/29 09:25:21;;;;;;;;;;;;;;;9.72;82.72;99941.66;5036314;28;1895;-77
2022/10/29 09:27:47;;;;;;;;;;;;;;;9.71;82.65;99937.31;5048394;28;1408;-77
2022/10/29 09:30:14;;;;;;;;;;;;;;;9.72;82.96;99941.66;5049974;28;1913;-77
2022/10/29 09:32:40;;;;;;;;;;;;;;;9.72;83.01;99939.78;5038138;28;1801;-77
2022/10/29 09:35:10;;;;;;;;;;;;;;;9.72;83.04;99957.78;5052340;28;1463;-77
2022/10/29 09:37:36;;;;;;;;;;;;;;;9.71;82.75;99942.72;5035762;28;1136;-76
2022/10/29 09:40:03;;;;;;;;;;;;;;;9.71;82.88;99946.22;5050324;28;1567;-77
2022/10/29 09:42:29;;;;;;;;;;;;;;;9.71;83.18;99950.78;5034760;28;1888;-77
2022/10/29 09:44:55;;;;;;;;;;;;;;;9.71;82.97;99959.66;5049971;28;1786;-77
2022/10/29 09:47:22;;;;;;;;;;;;;;;9.71;82.71;99956.97;5019743;28;1692;-77
2022/10/29 09:49:48;;;;;;;;;;;;;;;9.72;82.84;99965.84;5049127;28;1975;-77
2022/10/29 09:52:14;;;;;;;;;;;;;;;9.71;82.78;99975.78;5034453;28;1144;-77
2022/10/29 09:54:40;;;;;;;;;;;;;;;9.72;82.48;99979.28;5052019;28;2014;-77
2022/10/29 09:57:07;;;;;;;;;;;;;;;9.71;82.59;99966.91;5036123;28;1112;-77
2022/10/29 09:59:33;;;;;;;;;;;;;;;9.72;82.69;99968.53;5051297;28;1571;-76
2022/10/29 10:02:00;;;;;;;;;;;;;;;9.73;82.57;99975.53;5052515;28;1840;-77
2022/10/29 10:04:28;;;;;;;;;;;;;;;9.73;82.51;99967.47;5054325;28;1112;-77
2022/10/29 10:06:55;;;;;;;;;;;;;;;9.72;82.58;99974.72;5054032;28;1139;-77
2022/10/29 10:09:21;;;;;;;;;;;;;;;9.73;82.72;99970.97;5053541;28;1910;-77
2022/10/29 10:11:47;;;;;;;;;;;;;;;9.74;82.78;99993.34;5055727;28;1952;-77
2022/10/29 10:14:13;;;;;;;;;;;;;;;9.73;82.44;99983.59;5052111;28;2902;-77
2022/10/29 10:16:42;;;;;;;;;;;;;;;9.73;82.44;99976.34;5039468;28;4463;-77
2022/10/29 10:19:08;;;;;;;;;;;;;;;9.73;82.55;99970.97;5048050;28;1829;-76
2022/10/29 10:21:34;;;;;;;;;;;;;;;9.74;82.48;99978.03;5050317;28;1865;-77
2022/10/29 10:24:01;;;;;;;;;;;;;;;9.74;82.48;99987.97;5025987;28;1858;-76
2022/10/29 10:26:27;;;;;;;;;;;;;;;9.75;82.45;99992.28;5050266;28;1927;-76
2022/10/29 10:28:53;;;;;;;;;;;;;;;9.74;82.60;99993.34;5042863;28;1543;-76
2022/10/29 10:31:20;;;;;;;;;;;;;;;9.73;82.24;99991.69;5042496;28;1914;-76
2022/10/29 10:33:46;;;;;;;;;;;;;;;9.73;82.16;99994.38;5034605;28;1825;-76
2022/10/29 10:36:12;;;;;;;;;;;;;;;9.73;82.10;100003.25;5033936;28;1583;-76
2022/10/29 10:38:38;;;;;;;;;;;;;;;9.74;82.10;100006.78;5016542;28;1596;-76
2022/10/29 10:41:05;;;;;;;;;;;;;;;9.75;82.17;100014.59;5032515;28;1829;-75
2022/10/29 10:43:31;;;;;;;;;;;;;;;9.75;82.06;100016.47;5041620;28;1808;-76
2022/10/29 10:45:57;;;;;;;;;;;;;;;9.75;82.11;100014.59;5028954;28;1591;-76
2022/10/29 10:48:24;;;;;;;;;;;;;;;9.74;81.95;100002.22;5020843;28;1800;-76
2022/10/29 10:50:50;;;;;;;;;;;;;;;9.76;81.99;100010.03;5039250;28;2036;-76
2022/10/29 10:53:16;;;;;;;;;;;;;;;9.76;81.86;100000.13;5043753;28;1575;-77
2022/10/29 10:55:42;;;;;;;;;;;;;;;9.75;81.60;100014.59;5049068;28;1464;-77
2022/10/29 10:58:09;;;;;;;;;;;;;;;9.77;81.67;100009.03;5018918;28;1584;-77
2022/10/29 11:00:35;;;;;;;;;;;;;;;9.77;81.89;100023.28;5044948;28;1921;-77
2022/10/29 11:03:01;;;;;;;;;;;;;;;9.78;81.69;100026.78;5043210;28;1643;-77
2022/10/29 11:05:27;;;;;;;;;;;;;;;9.79;82.13;100036.47;5021633;28;1585;-77
2022/10/29 11:07:54;;;;;;;;;;;;;;;9.79;81.91;100036.47;5021454;28;1820;-75
2022/10/29 11:10:20;;;;;;;;;;;;;;;9.80;82.04;100040.03;5032252;28;1914;-75
2022/10/29 11:12:46;;;;;;;;;;;;;;;9.80;82.02;100048.91;5045310;28;1633;-78
2022/10/29 11:15:13;;;;;;;;;;;;;;;9.81;81.79;100045.16;5040289;28;1684;-75
2022/10/29 11:17:39;;;;;;;;;;;;;;;9.81;81.91;100045.16;5018705;28;1635;-75
2022/10/29 11:20:06;;;;;;;;;;;;;;;9.81;81.98;100045.16;5041033;28;1773;-74
2022/10/29 11:22:33;;;;;;;;;;;;;;;9.82;81.98;100032.53;5038155;28;1536;-76
2022/10/29 11:24:59;;;;;;;;;;;;;;;9.83;81.95;100036.88;5043291;28;1619;-77
2022/10/29 11:27:25;;;;;;;;;;;;;;;9.82;81.81;100027.97;5036932;28;1559;-75
2022/10/29 11:29:51;;;;;;;;;;;;;;;9.84;81.88;100030.44;5047502;28;2014;-75
2022/10/29 11:32:18;;;;;;;;;;;;;;;9.84;81.93;100033.94;5045790;28;1602;-75
2022/10/29 11:34:44;;;;;;;;;;;;;;;9.84;82.15;100036.63;5045628;28;1406;-77
2022/10/29 11:37:10;;;;;;;;;;;;;;;9.85;81.90;100030.19;5034258;28;1603;-77
2022/10/29 11:39:36;;;;;;;;;;;;;;;9.86;82.04;100042.63;5040898;28;2001;-76
2022/10/29 11:42:04;;;;;;;;;;;;;;;9.86;81.99;100039.94;5039871;28;1621;-75
2022/10/29 11:44:30;;;;;;;;;;;;;;;9.88;82.22;100047.75;5047100;28;1504;-76
2022/10/29 11:46:56;;;;;;;;;;;;;;;9.88;82.08;100053.97;5019767;28;1637;-76
2022/10/29 11:49:23;;;;;;;;;;;;;;;9.88;82.25;100056.66;5034626;28;1829;-77
2022/10/29 11:51:50;;;;;;;;;;;;;;;9.88;82.14;100053.13;5044416;28;1970;-78
2022/10/29 11:54:16;;;;;;;;;;;;;;;9.89;82.17;100050.22;5033635;28;1607;-78
2022/10/29 11:56:43;;;;;;;;;;;;;;;9.89;82.16;100055.59;5044109;28;1828;-75
2022/10/29 11:59:09;;;;;;;;;;;;;;;9.90;82.24;100054.56;5042948;28;1906;-75
2022/10/29 12:01:35;;;;;;;;;;;;;;;9.92;82.18;100048.97;5039743;28;1950;-76
2022/10/29 12:04:02;;;;;;;;;;;;;;;9.92;82.35;100055.16;5023877;28;1586;-79
2022/10/29 12:06:28;;;;;;;;;;;;;;;9.93;82.31;100058.66;5037232;28;1579;-78
2022/10/29 12:08:54;;;;;;;;;;;;;;;9.93;82.24;100067.53;5021194;28;1672;-80
2022/10/29 12:11:20;;;;;;;;;;;;;;;9.94;82.48;100062.97;5038494;28;1957;-80
2022/10/29 12:13:47;;;;;;;;;;;;;;;9.95;82.28;100061.94;5033753;28;1575;-76
2022/10/29 12:16:13;;;;;;;;;;;;;;;9.96;82.50;100066.28;5037716;28;4430;-76
2022/10/29 12:18:39;;;;;;;;;;;;;;;9.96;82.46;100061.72;5040750;28;3952;-77
2022/10/29 12:21:05;;;;;;;;;;;;;;;9.98;82.48;100067.69;5025131;28;1616;-80
2022/10/29 12:23:32;;;;;;;;;;;;;;;9.98;82.47;100056.13;5016558;28;3692;-80
2022/10/29 12:25:59;;;;;;;;;;;;;;;9.98;82.52;100064.19;5024848;28;2002;-79
2022/10/29 12:28:25;;;;;;;;;;;;;;;9.99;82.59;100063.94;5022700;28;1889;-80
2022/10/29 12:30:52;;;;;;;;;;;;;;;10.00;82.57;100068.28;5043435;28;1918;-78
2022/10/29 12:33:18;;;;;;;;;;;;;;;10.01;82.52;100075.31;5037634;28;1923;-79
2022/10/29 12:35:44;;;;;;;;;;;;;;;10.02;82.49;100070.75;5046581;28;3663;-80
2022/10/29 12:38:11;;;;;;;;;;;;;;;10.02;82.48;100063.47;5034690;28;1855;-79
2022/10/29 12:40:37;;;;;;;;;;;;;;;10.03;82.44;100067.03;5039119;28;1840;-80
2022/10/29 12:43:03;;;;;;;;;;;;;;;10.04;82.73;100060.59;5038695;28;1603;-80
2022/10/29 12:45:30;;;;;;;;;;;;;;;10.06;82.54;100063.03;5042543;28;1545;-78
2022/10/29 12:47:56;;;;;;;;;;;;;;;10.07;82.67;100072.75;5043684;28;3042;-80
2022/10/29 12:50:22;;;;;;;;;;;;;;;10.08;82.59;100074.41;5038376;28;1914;-78
2022/10/29 12:52:49;;;;;;;;;;;;;;;10.09;82.63;100078.72;5039954;28;1868;-81
2022/10/29 12:55:15;;;;;;;;;;;;;;;10.09;82.59;100082.25;5047038;28;1856;-77
2022/10/29 12:57:41;;;;;;;;;;;;;;;10.10;82.63;100075.00;5044815;28;1700;-77